sensor_id;sensor_type;location;lat;lon;timestamp;temperature;humidity
20658;DHT22;10488;50.846;4.078;2023-03-14T00:00:34;10.60;99.90
20658;DHT22;10488;50.846;4.078;2023-03-14T00:03:01;10.50;99.90
20658;DHT22;10488;50.846;4.078;2023-03-14T00:05:27;10.50;99.90
20658;DHT22;10488;50.846;4.078;2023-03-14T00:07:53;10.50;99.90
20658;DHT22;10488;50.846;4.078;2023-03-14T00:10:18;10.60;99.90
20658;DHT22;10488;50.846;4.078;2023-03-14T00:12:44;10.60;99.90
20658;DHT22;10488;50.846;4.078;2023-03-14T00:15:11;10.50;99.90
20658;DHT22;10488;50.846;4.078;2023-03-14T00:17:37;10.50;99.90
20658;DHT22;10488;50.846;4.078;2023-03-14T00:20:05;10.50;99.90
20658;DHT22;10488;50.846;4.078;2023-03-14T00:22:37;10.60;99.90
20658;DHT22;10488;50.846;4.078;2023-03-14T00:25:04;10.50;99.90
20658;DHT22;10488;50.846;4.078;2023-03-14T00:27:31;10.40;99.90
20658;DHT22;10488;50.846;4.078;2023-03-14T00:29:56;10.30;99.90
20658;DHT22;10488;50.846;4.078;2023-03-14T00:32:22;10.30;99.90
20658;DHT22;10488;50.846;4.078;2023-03-14T00:34:48;10.20;99.90
20658;DHT22;10488;50.846;4.078;2023-03-14T00:37:15;10.20;99.90
20658;DHT22;10488;50.846;4.078;2023-03-14T00:39:41;10.20;99.90
20658;DHT22;10488;50.846;4.078;2023-03-14T00:42:07;10.20;99.90
20658;DHT22;10488;50.846;4.078;2023-03-14T00:44:32;10.20;99.90
20658;DHT22;10488;50.846;4.078;2023-03-14T00:46:58;10.20;99.90
20658;DHT22;10488;50.846;4.078;2023-03-14T00:49:24;10.30;99.90
20658;DHT22;10488;50.846;4.078;2023-03-14T00:51:50;10.20;99.90
20658;DHT22;10488;50.846;4.078;2023-03-14T00:54:19;10.30;99.90
20658;DHT22;10488;50.846;4.078;2023-03-14T00:56:44;10.30;99.90
20658;DHT22;10488;50.846;4.078;2023-03-14T00:59:10;10.20;99.90
20658;DHT22;10488;50.846;4.078;2023-03-14T01:01:36;10.20;99.90
20658;DHT22;10488;50.846;4.078;2023-03-14T01:04:02;10.20;99.90
20658;DHT22;10488;50.846;4.078;2023-03-14T01:06:29;10.10;99.90
20658;DHT22;10488;50.846;4.078;2023-03-14T01:08:55;10.00;99.90
20658;DHT22;10488;50.846;4.078;2023-03-14T01:13:48;9.90;99.90
20658;DHT22;10488;50.846;4.078;2023-03-14T01:16:15;9.90;99.90
20658;DHT22;10488;50.846;4.078;2023-03-14T01:18:42;9.90;99.90
20658;DHT22;10488;50.846;4.078;2023-03-14T01:21:35;9.90;99.90
20658;DHT22;10488;50.846;4.078;2023-03-14T01:24:04;9.90;99.90
20658;DHT22;10488;50.846;4.078;2023-03-14T01:26:32;9.90;99.90
20658;DHT22;10488;50.846;4.078;2023-03-14T01:29:00;10.00;99.90
20658;DHT22;10488;50.846;4.078;2023-03-14T01:31:26;10.10;99.90
20658;DHT22;10488;50.846;4.078;2023-03-14T01:33:52;10.10;99.90
20658;DHT22;10488;50.846;4.078;2023-03-14T01:36:18;10.00;99.90
20658;DHT22;10488;50.846;4.078;2023-03-14T01:38:44;10.00;99.90
20658;DHT22;10488;50.846;4.078;2023-03-14T01:41:16;10.00;99.90
20658;DHT22;10488;50.846;4.078;2023-03-14T01:43:42;10.00;99.90
20658;DHT22;10488;50.846;4.078;2023-03-14T01:51:21;10.20;99.90
20658;DHT22;10488;50.846;4.078;2023-03-14T01:53:50;10.20;99.90
20658;DHT22;10488;50.846;4.078;2023-03-14T01:56:17;10.30;99.90
20658;DHT22;10488;50.846;4.078;2023-03-14T01:58:46;10.30;99.90
20658;DHT22;10488;50.846;4.078;2023-03-14T02:01:16;10.30;99.90
20658;DHT22;10488;50.846;4.078;2023-03-14T02:03:50;10.20;99.90
20658;DHT22;10488;50.846;4.078;2023-03-14T02:06:20;10.20;99.90
20658;DHT22;10488;50.846;4.078;2023-03-14T02:08:47;10.20;99.90
20658;DHT22;10488;50.846;4.078;2023-03-14T02:11:16;10.10;99.90
20658;DHT22;10488;50.846;4.078;2023-03-14T02:13:43;10.00;99.90
20658;DHT22;10488;50.846;4.078;2023-03-14T02:16:08;9.90;99.90
20658;DHT22;10488;50.846;4.078;2023-03-14T02:18:34;9.90;99.90
20658;DHT22;10488;50.846;4.078;2023-03-14T02:21:01;9.90;99.90
20658;DHT22;10488;50.846;4.078;2023-03-14T02:24:09;10.00;99.90
20658;DHT22;10488;50.846;4.078;2023-03-14T02:26:44;10.10;99.90
20658;DHT22;10488;50.846;4.078;2023-03-14T02:29:11;10.20;99.90
20658;DHT22;10488;50.846;4.078;2023-03-14T02:31:36;10.10;99.90
20658;DHT22;10488;50.846;4.078;2023-03-14T02:34:02;10.20;99.90
20658;DHT22;10488;50.846;4.078;2023-03-14T02:36:29;10.10;99.90
20658;DHT22;10488;50.846;4.078;2023-03-14T02:39:08;10.10;99.90
20658;DHT22;10488;50.846;4.078;2023-03-14T02:41:36;10.00;99.90
20658;DHT22;10488;50.846;4.078;2023-03-14T02:44:02;10.00;99.90
20658;DHT22;10488;50.846;4.078;2023-03-14T02:46:28;10.00;99.90
20658;DHT22;10488;50.846;4.078;2023-03-14T02:49:14;10.00;99.90
20658;DHT22;10488;50.846;4.078;2023-03-14T02:51:42;10.10;99.90
20658;DHT22;10488;50.846;4.078;2023-03-14T02:54:08;10.10;99.90
20658;DHT22;10488;50.846;4.078;2023-03-14T02:56:34;10.10;99.90
20658;DHT22;10488;50.846;4.078;2023-03-14T02:59:03;10.00;99.90
20658;DHT22;10488;50.846;4.078;2023-03-14T03:01:28;10.10;99.90
20658;DHT22;10488;50.846;4.078;2023-03-14T03:03:54;10.10;99.90
20658;DHT22;10488;50.846;4.078;2023-03-14T03:06:20;10.10;99.90
20658;DHT22;10488;50.846;4.078;2023-03-14T03:08:45;10.10;99.90
20658;DHT22;10488;50.846;4.078;2023-03-14T03:11:11;10.20;99.90
20658;DHT22;10488;50.846;4.078;2023-03-14T03:13:37;10.20;99.90
20658;DHT22;10488;50.846;4.078;2023-03-14T03:16:03;10.20;99.90
20658;DHT22;10488;50.846;4.078;2023-03-14T03:18:28;10.20;99.90
20658;DHT22;10488;50.846;4.078;2023-03-14T03:20:54;10.10;99.90
20658;DHT22;10488;50.846;4.078;2023-03-14T03:23:20;10.10;99.90
20658;DHT22;10488;50.846;4.078;2023-03-14T03:25:49;10.00;99.90
20658;DHT22;10488;50.846;4.078;2023-03-14T03:28:15;10.10;99.90
20658;DHT22;10488;50.846;4.078;2023-03-14T03:30:41;10.10;99.90
20658;DHT22;10488;50.846;4.078;2023-03-14T03:33:07;10.20;99.90
20658;DHT22;10488;50.846;4.078;2023-03-14T03:35:34;10.20;99.90
20658;DHT22;10488;50.846;4.078;2023-03-14T03:37:59;10.10;99.90
20658;DHT22;10488;50.846;4.078;2023-03-14T03:40:25;10.20;99.90
20658;DHT22;10488;50.846;4.078;2023-03-14T03:42:51;10.00;99.90
20658;DHT22;10488;50.846;4.078;2023-03-14T03:45:17;10.10;99.90
20658;DHT22;10488;50.846;4.078;2023-03-14T03:47:42;10.10;99.90
20658;DHT22;10488;50.846;4.078;2023-03-14T03:50:08;10.20;99.90
20658;DHT22;10488;50.846;4.078;2023-03-14T03:52:34;10.20;99.90
20658;DHT22;10488;50.846;4.078;2023-03-14T03:55:01;10.40;99.90
20658;DHT22;10488;50.846;4.078;2023-03-14T03:57:26;10.40;99.90
20658;DHT22;10488;50.846;4.078;2023-03-14T03:59:52;10.20;99.90
20658;DHT22;10488;50.846;4.078;2023-03-14T04:02:18;10.20;99.90
20658;DHT22;10488;50.846;4.078;2023-03-14T04:04:43;10.20;99.90
20658;DHT22;10488;50.846;4.078;2023-03-14T04:07:09;10.20;99.90
20658;DHT22;10488;50.846;4.078;2023-03-14T04:09:37;10.30;99.90
20658;DHT22;10488;50.846;4.078;2023-03-14T04:12:03;10.20;99.90
20658;DHT22;10488;50.846;4.078;2023-03-14T04:14:29;10.30;99.90
20658;DHT22;10488;50.846;4.078;2023-03-14T04:16:54;10.40;99.90
20658;DHT22;10488;50.846;4.078;2023-03-14T04:19:20;10.30;99.90
20658;DHT22;10488;50.846;4.078;2023-03-14T04:21:47;10.40;99.90
20658;DHT22;10488;50.846;4.078;2023-03-14T04:24:13;10.40;99.90
20658;DHT22;10488;50.846;4.078;2023-03-14T04:26:39;10.40;99.90
20658;DHT22;10488;50.846;4.078;2023-03-14T04:29:04;10.30;99.90
20658;DHT22;10488;50.846;4.078;2023-03-14T04:31:30;10.30;99.90
20658;DHT22;10488;50.846;4.078;2023-03-14T04:33:56;10.30;99.90
20658;DHT22;10488;50.846;4.078;2023-03-14T04:36:21;10.20;99.90
20658;DHT22;10488;50.846;4.078;2023-03-14T04:38:47;10.20;99.90
20658;DHT22;10488;50.846;4.078;2023-03-14T04:41:13;10.30;99.90
20658;DHT22;10488;50.846;4.078;2023-03-14T04:43:38;10.30;99.90
20658;DHT22;10488;50.846;4.078;2023-03-14T04:46:04;10.30;99.90
20658;DHT22;10488;50.846;4.078;2023-03-14T04:48:30;10.30;99.90
20658;DHT22;10488;50.846;4.078;2023-03-14T04:50:57;10.20;99.90
20658;DHT22;10488;50.846;4.078;2023-03-14T04:53:22;10.20;99.90
20658;DHT22;10488;50.846;4.078;2023-03-14T04:55:49;10.30;99.90
20658;DHT22;10488;50.846;4.078;2023-03-14T04:58:15;10.30;99.90
20658;DHT22;10488;50.846;4.078;2023-03-14T05:00:41;10.40;99.90
20658;DHT22;10488;50.846;4.078;2023-03-14T05:03:06;10.30;99.90
20658;DHT22;10488;50.846;4.078;2023-03-14T05:05:32;10.30;99.90
20658;DHT22;10488;50.846;4.078;2023-03-14T05:07:58;10.30;99.90
20658;DHT22;10488;50.846;4.078;2023-03-14T05:10:23;10.30;99.90
20658;DHT22;10488;50.846;4.078;2023-03-14T05:12:49;10.30;99.90
20658;DHT22;10488;50.846;4.078;2023-03-14T05:15:14;10.40;99.90
20658;DHT22;10488;50.846;4.078;2023-03-14T05:17:40;10.40;99.90
20658;DHT22;10488;50.846;4.078;2023-03-14T05:20:06;10.30;99.90
20658;DHT22;10488;50.846;4.078;2023-03-14T05:22:35;10.40;99.90
20658;DHT22;10488;50.846;4.078;2023-03-14T05:25:01;10.50;99.90
20658;DHT22;10488;50.846;4.078;2023-03-14T05:27:26;10.40;99.90
20658;DHT22;10488;50.846;4.078;2023-03-14T05:29:52;10.50;99.90
20658;DHT22;10488;50.846;4.078;2023-03-14T05:32:18;10.50;99.90
20658;DHT22;10488;50.846;4.078;2023-03-14T05:34:43;10.50;99.90
20658;DHT22;10488;50.846;4.078;2023-03-14T05:37:09;10.60;99.90
20658;DHT22;10488;50.846;4.078;2023-03-14T05:39:35;10.60;99.90
20658;DHT22;10488;50.846;4.078;2023-03-14T05:42:00;10.60;99.90
20658;DHT22;10488;50.846;4.078;2023-03-14T05:44:26;10.70;99.90
20658;DHT22;10488;50.846;4.078;2023-03-14T05:46:51;10.70;99.90
20658;DHT22;10488;50.846;4.078;2023-03-14T05:49:17;10.60;99.90
20658;DHT22;10488;50.846;4.078;2023-03-14T05:51:43;10.60;99.90
20658;DHT22;10488;50.846;4.078;2023-03-14T05:54:09;10.50;99.90
20658;DHT22;10488;50.846;4.078;2023-03-14T05:56:34;10.70;99.90
20658;DHT22;10488;50.846;4.078;2023-03-14T05:59:00;10.60;99.90
20658;DHT22;10488;50.846;4.078;2023-03-14T06:01:28;10.80;99.90
20658;DHT22;10488;50.846;4.078;2023-03-14T06:03:54;10.90;99.90
20658;DHT22;10488;50.846;4.078;2023-03-14T06:06:20;10.70;99.90
20658;DHT22;10488;50.846;4.078;2023-03-14T06:08:45;10.70;99.90
20658;DHT22;10488;50.846;4.078;2023-03-14T06:11:11;10.60;99.90
20658;DHT22;10488;50.846;4.078;2023-03-14T06:13:37;10.40;99.90
20658;DHT22;10488;50.846;4.078;2023-03-14T06:16:02;10.50;99.90
20658;DHT22;10488;50.846;4.078;2023-03-14T06:18:28;10.50;99.90
20658;DHT22;10488;50.846;4.078;2023-03-14T06:20:54;10.60;99.90
20658;DHT22;10488;50.846;4.078;2023-03-14T06:23:21;10.40;99.90
20658;DHT22;10488;50.846;4.078;2023-03-14T06:25:46;10.50;99.90
20658;DHT22;10488;50.846;4.078;2023-03-14T06:28:12;10.40;99.90
20658;DHT22;10488;50.846;4.078;2023-03-14T06:30:38;10.30;99.90
20658;DHT22;10488;50.846;4.078;2023-03-14T06:33:03;9.90;99.90
20658;DHT22;10488;50.846;4.078;2023-03-14T06:35:30;9.50;99.90
20658;DHT22;10488;50.846;4.078;2023-03-14T06:37:56;9.30;99.90
20658;DHT22;10488;50.846;4.078;2023-03-14T06:40:22;9.00;99.90
20658;DHT22;10488;50.846;4.078;2023-03-14T06:42:48;8.90;99.90
20658;DHT22;10488;50.846;4.078;2023-03-14T06:45:14;8.60;99.90
20658;DHT22;10488;50.846;4.078;2023-03-14T06:47:40;8.60;99.90
20658;DHT22;10488;50.846;4.078;2023-03-14T06:50:06;8.60;99.90
20658;DHT22;10488;50.846;4.078;2023-03-14T06:52:33;8.60;99.90
20658;DHT22;10488;50.846;4.078;2023-03-14T06:54:58;8.50;99.90
20658;DHT22;10488;50.846;4.078;2023-03-14T06:57:24;8.40;99.90
20658;DHT22;10488;50.846;4.078;2023-03-14T06:59:51;8.20;99.90
20658;DHT22;10488;50.846;4.078;2023-03-14T07:02:17;8.20;99.90
20658;DHT22;10488;50.846;4.078;2023-03-14T07:04:42;8.30;99.90
20658;DHT22;10488;50.846;4.078;2023-03-14T07:07:08;8.40;99.90
20658;DHT22;10488;50.846;4.078;2023-03-14T07:09:34;8.30;99.90
20658;DHT22;10488;50.846;4.078;2023-03-14T07:12:00;8.10;99.90
20658;DHT22;10488;50.846;4.078;2023-03-14T07:14:26;8.10;99.90
20658;DHT22;10488;50.846;4.078;2023-03-14T07:16:52;8.10;99.90
20658;DHT22;10488;50.846;4.078;2023-03-14T07:19:18;8.00;99.90
20658;DHT22;10488;50.846;4.078;2023-03-14T07:21:43;8.00;99.90
20658;DHT22;10488;50.846;4.078;2023-03-14T07:24:11;7.90;99.90
20658;DHT22;10488;50.846;4.078;2023-03-14T07:26:38;8.00;99.90
20658;DHT22;10488;50.846;4.078;2023-03-14T07:29:04;7.90;99.90
20658;DHT22;10488;50.846;4.078;2023-03-14T07:31:30;8.00;99.90
20658;DHT22;10488;50.846;4.078;2023-03-14T07:33:56;8.00;99.90
20658;DHT22;10488;50.846;4.078;2023-03-14T07:36:21;8.00;99.90
20658;DHT22;10488;50.846;4.078;2023-03-14T07:38:47;8.10;99.90
20658;DHT22;10488;50.846;4.078;2023-03-14T07:41:13;8.00;99.90
20658;DHT22;10488;50.846;4.078;2023-03-14T07:43:40;8.00;99.90
20658;DHT22;10488;50.846;4.078;2023-03-14T07:46:06;8.10;99.90
20658;DHT22;10488;50.846;4.078;2023-03-14T07:48:32;8.10;99.90
20658;DHT22;10488;50.846;4.078;2023-03-14T07:50:57;8.10;99.90
20658;DHT22;10488;50.846;4.078;2023-03-14T07:53:25;8.10;99.90
20658;DHT22;10488;50.846;4.078;2023-03-14T07:55:52;8.10;99.90
20658;DHT22;10488;50.846;4.078;2023-03-14T07:58:18;8.00;99.90
20658;DHT22;10488;50.846;4.078;2023-03-14T08:00:44;8.10;99.90
20658;DHT22;10488;50.846;4.078;2023-03-14T08:03:10;8.10;99.90
20658;DHT22;10488;50.846;4.078;2023-03-14T08:05:36;8.10;99.90
20658;DHT22;10488;50.846;4.078;2023-03-14T08:08:03;8.20;99.90
20658;DHT22;10488;50.846;4.078;2023-03-14T08:10:29;8.20;99.90
20658;DHT22;10488;50.846;4.078;2023-03-14T08:12:56;8.20;99.90
20658;DHT22;10488;50.846;4.078;2023-03-14T08:15:24;8.20;99.90
20658;DHT22;10488;50.846;4.078;2023-03-14T08:17:50;8.10;99.90
20658;DHT22;10488;50.846;4.078;2023-03-14T08:20:25;8.10;99.90
20658;DHT22;10488;50.846;4.078;2023-03-14T08:22:51;8.00;99.90
20658;DHT22;10488;50.846;4.078;2023-03-14T08:25:17;7.90;99.90
20658;DHT22;10488;50.846;4.078;2023-03-14T08:27:43;7.80;99.90
20658;DHT22;10488;50.846;4.078;2023-03-14T08:30:14;7.80;99.90
20658;DHT22;10488;50.846;4.078;2023-03-14T08:32:40;7.70;99.90
20658;DHT22;10488;50.846;4.078;2023-03-14T08:35:06;7.40;99.90
20658;DHT22;10488;50.846;4.078;2023-03-14T08:37:34;7.50;99.90
20658;DHT22;10488;50.846;4.078;2023-03-14T08:40:01;7.60;99.90
20658;DHT22;10488;50.846;4.078;2023-03-14T08:42:30;7.50;99.90
20658;DHT22;10488;50.846;4.078;2023-03-14T08:44:55;7.40;99.90
20658;DHT22;10488;50.846;4.078;2023-03-14T08:47:21;7.30;99.90
20658;DHT22;10488;50.846;4.078;2023-03-14T08:49:47;7.40;99.90
20658;DHT22;10488;50.846;4.078;2023-03-14T08:52:13;7.50;99.90
20658;DHT22;10488;50.846;4.078;2023-03-14T08:54:42;7.50;99.90
20658;DHT22;10488;50.846;4.078;2023-03-14T08:57:08;7.40;99.90
20658;DHT22;10488;50.846;4.078;2023-03-14T08:59:34;7.40;99.90
20658;DHT22;10488;50.846;4.078;2023-03-14T09:02:01;7.20;99.90
20658;DHT22;10488;50.846;4.078;2023-03-14T09:04:29;7.00;99.90
20658;DHT22;10488;50.846;4.078;2023-03-14T09:06:55;7.00;99.90
20658;DHT22;10488;50.846;4.078;2023-03-14T09:09:20;7.20;99.90
20658;DHT22;10488;50.846;4.078;2023-03-14T09:11:47;7.40;99.90
20658;DHT22;10488;50.846;4.078;2023-03-14T09:14:12;7.50;99.90
20658;DHT22;10488;50.846;4.078;2023-03-14T09:16:40;7.80;99.90
20658;DHT22;10488;50.846;4.078;2023-03-14T09:19:05;7.80;99.90
20658;DHT22;10488;50.846;4.078;2023-03-14T09:21:31;7.90;99.90
20658;DHT22;10488;50.846;4.078;2023-03-14T09:23:57;8.00;99.90
20658;DHT22;10488;50.846;4.078;2023-03-14T09:26:22;8.10;99.90
20658;DHT22;10488;50.846;4.078;2023-03-14T09:28:48;8.10;99.90
20658;DHT22;10488;50.846;4.078;2023-03-14T09:31:14;7.90;99.90
20658;DHT22;10488;50.846;4.078;2023-03-14T09:33:40;7.90;99.90
20658;DHT22;10488;50.846;4.078;2023-03-14T09:36:06;8.10;99.90
20658;DHT22;10488;50.846;4.078;2023-03-14T09:38:33;8.20;99.90
20658;DHT22;10488;50.846;4.078;2023-03-14T09:41:01;8.10;99.90
20658;DHT22;10488;50.846;4.078;2023-03-14T09:43:31;8.10;99.90
20658;DHT22;10488;50.846;4.078;2023-03-14T09:46:01;8.20;99.90
20658;DHT22;10488;50.846;4.078;2023-03-14T09:48:30;8.40;99.90
20658;DHT22;10488;50.846;4.078;2023-03-14T09:50:58;8.60;99.90
20658;DHT22;10488;50.846;4.078;2023-03-14T09:53:40;8.60;99.90
20658;DHT22;10488;50.846;4.078;2023-03-14T09:56:28;8.50;99.90
20658;DHT22;10488;50.846;4.078;2023-03-14T09:58:56;8.60;99.90
20658;DHT22;10488;50.846;4.078;2023-03-14T10:01:26;8.40;99.90
20658;DHT22;10488;50.846;4.078;2023-03-14T10:04:04;8.40;99.90
20658;DHT22;10488;50.846;4.078;2023-03-14T10:06:31;8.50;99.90
20658;DHT22;10488;50.846;4.078;2023-03-14T10:08:57;8.70;99.90
20658;DHT22;10488;50.846;4.078;2023-03-14T10:11:23;8.80;99.90
20658;DHT22;10488;50.846;4.078;2023-03-14T10:14:05;9.00;99.90
20658;DHT22;10488;50.846;4.078;2023-03-14T10:16:41;8.90;99.90
20658;DHT22;10488;50.846;4.078;2023-03-14T10:19:15;8.80;99.90
20658;DHT22;10488;50.846;4.078;2023-03-14T10:21:50;8.70;99.90
20658;DHT22;10488;50.846;4.078;2023-03-14T10:26:53;8.80;99.90
20658;DHT22;10488;50.846;4.078;2023-03-14T10:29:19;8.80;99.90
20658;DHT22;10488;50.846;4.078;2023-03-14T10:34:33;8.80;99.90
20658;DHT22;10488;50.846;4.078;2023-03-14T10:37:26;8.50;99.90
20658;DHT22;10488;50.846;4.078;2023-03-14T10:39:55;8.40;99.90
20658;DHT22;10488;50.846;4.078;2023-03-14T10:42:26;8.40;99.90
20658;DHT22;10488;50.846;4.078;2023-03-14T10:44:57;8.10;99.90
20658;DHT22;10488;50.846;4.078;2023-03-14T10:47:32;8.20;99.90
20658;DHT22;10488;50.846;4.078;2023-03-14T10:50:28;8.10;99.90
20658;DHT22;10488;50.846;4.078;2023-03-14T10:52:55;8.20;99.90
20658;DHT22;10488;50.846;4.078;2023-03-14T10:55:22;8.00;99.90
20658;DHT22;10488;50.846;4.078;2023-03-14T10:57:52;7.80;99.90
20658;DHT22;10488;50.846;4.078;2023-03-14T11:00:21;7.70;99.90
20658;DHT22;10488;50.846;4.078;2023-03-14T11:03:11;7.50;99.90
20658;DHT22;10488;50.846;4.078;2023-03-14T11:05:44;7.30;99.90
20658;DHT22;10488;50.846;4.078;2023-03-14T11:11:26;7.00;99.90
20658;DHT22;10488;50.846;4.078;2023-03-14T11:14:22;6.90;99.90
20658;DHT22;10488;50.846;4.078;2023-03-14T11:16:56;6.90;99.90
20658;DHT22;10488;50.846;4.078;2023-03-14T11:19:53;6.80;99.90
20658;DHT22;10488;50.846;4.078;2023-03-14T11:25:32;6.80;99.90
20658;DHT22;10488;50.846;4.078;2023-03-14T11:30:52;6.70;99.90
20658;DHT22;10488;50.846;4.078;2023-03-14T11:36:39;6.60;99.90
20658;DHT22;10488;50.846;4.078;2023-03-14T11:39:16;6.40;99.90
20658;DHT22;10488;50.846;4.078;2023-03-14T11:41:46;6.40;99.90
20658;DHT22;10488;50.846;4.078;2023-03-14T11:44:19;6.40;99.90
20658;DHT22;10488;50.846;4.078;2023-03-14T11:50:12;6.10;99.90
20658;DHT22;10488;50.846;4.078;2023-03-14T11:55:30;6.40;99.90
20658;DHT22;10488;50.846;4.078;2023-03-14T11:58:01;6.50;99.90
20658;DHT22;10488;50.846;4.078;2023-03-14T12:00:28;6.60;99.90
20658;DHT22;10488;50.846;4.078;2023-03-14T12:06:02;6.60;99.90
20658;DHT22;10488;50.846;4.078;2023-03-14T12:13:53;6.70;99.90
20658;DHT22;10488;50.846;4.078;2023-03-14T12:16:35;6.90;99.90
20658;DHT22;10488;50.846;4.078;2023-03-14T12:19:26;6.90;99.90
20658;DHT22;10488;50.846;4.078;2023-03-14T12:22:25;6.90;99.90
20658;DHT22;10488;50.846;4.078;2023-03-14T12:25:19;7.00;99.90
20658;DHT22;10488;50.846;4.078;2023-03-14T12:35:40;7.30;99.90
20658;DHT22;10488;50.846;4.078;2023-03-14T12:38:16;7.40;99.90
20658;DHT22;10488;50.846;4.078;2023-03-14T12:40:58;7.50;99.90
20658;DHT22;10488;50.846;4.078;2023-03-14T12:43:30;7.50;99.90
20658;DHT22;10488;50.846;4.078;2023-03-14T12:46:26;7.60;99.90
20658;DHT22;10488;50.846;4.078;2023-03-14T12:51:40;7.70;99.90
20658;DHT22;10488;50.846;4.078;2023-03-14T12:54:41;7.90;99.90
20658;DHT22;10488;50.846;4.078;2023-03-14T12:57:28;7.90;99.90
20658;DHT22;10488;50.846;4.078;2023-03-14T13:00:16;7.80;99.90
20658;DHT22;10488;50.846;4.078;2023-03-14T13:02:44;7.60;99.90
20658;DHT22;10488;50.846;4.078;2023-03-14T13:05:20;7.70;99.90
20658;DHT22;10488;50.846;4.078;2023-03-14T13:10:25;7.80;99.90
20658;DHT22;10488;50.846;4.078;2023-03-14T13:15:43;7.60;99.90
20658;DHT22;10488;50.846;4.078;2023-03-14T13:21:01;7.00;99.90
20658;DHT22;10488;50.846;4.078;2023-03-14T13:23:32;6.80;99.90
20658;DHT22;10488;50.846;4.078;2023-03-14T13:26:00;6.90;99.90
20658;DHT22;10488;50.846;4.078;2023-03-14T13:28:27;7.10;99.90
20658;DHT22;10488;50.846;4.078;2023-03-14T13:31:03;7.10;99.90
20658;DHT22;10488;50.846;4.078;2023-03-14T13:33:31;7.30;99.90
20658;DHT22;10488;50.846;4.078;2023-03-14T13:36:05;7.30;99.90
20658;DHT22;10488;50.846;4.078;2023-03-14T13:38:33;7.40;99.90
20658;DHT22;10488;50.846;4.078;2023-03-14T13:41:04;7.30;99.90
20658;DHT22;10488;50.846;4.078;2023-03-14T13:43:33;7.00;99.90
20658;DHT22;10488;50.846;4.078;2023-03-14T13:46:28;6.80;99.90
20658;DHT22;10488;50.846;4.078;2023-03-14T13:48:57;6.40;99.90
20658;DHT22;10488;50.846;4.078;2023-03-14T13:51:23;6.10;99.90
20658;DHT22;10488;50.846;4.078;2023-03-14T13:53:52;5.90;99.90
20658;DHT22;10488;50.846;4.078;2023-03-14T13:56:20;5.90;99.90
20658;DHT22;10488;50.846;4.078;2023-03-14T13:58:47;6.10;99.90
20658;DHT22;10488;50.846;4.078;2023-03-14T14:03:45;6.20;99.90
20658;DHT22;10488;50.846;4.078;2023-03-14T14:06:29;6.20;99.90
20658;DHT22;10488;50.846;4.078;2023-03-14T14:08:59;6.30;99.90
20658;DHT22;10488;50.846;4.078;2023-03-14T14:11:46;6.60;99.90
20658;DHT22;10488;50.846;4.078;2023-03-14T14:14:19;6.80;99.90
20658;DHT22;10488;50.846;4.078;2023-03-14T14:16:48;7.10;99.90
20658;DHT22;10488;50.846;4.078;2023-03-14T14:19:15;7.10;99.90
20658;DHT22;10488;50.846;4.078;2023-03-14T14:21:42;7.20;99.90
20658;DHT22;10488;50.846;4.078;2023-03-14T14:24:12;7.30;99.90
20658;DHT22;10488;50.846;4.078;2023-03-14T14:29:33;7.60;99.90
20658;DHT22;10488;50.846;4.078;2023-03-14T14:34:28;7.30;99.90
20658;DHT22;10488;50.846;4.078;2023-03-14T14:36:53;7.10;99.90
20658;DHT22;10488;50.846;4.078;2023-03-14T14:39:26;6.80;99.90
20658;DHT22;10488;50.846;4.078;2023-03-14T14:41:55;6.30;99.90
20658;DHT22;10488;50.846;4.078;2023-03-14T14:44:30;6.10;99.90
20658;DHT22;10488;50.846;4.078;2023-03-14T14:46:57;6.00;99.90
20658;DHT22;10488;50.846;4.078;2023-03-14T14:49:29;5.70;99.90
20658;DHT22;10488;50.846;4.078;2023-03-14T14:52:17;5.70;99.90
20658;DHT22;10488;50.846;4.078;2023-03-14T14:54:46;5.70;99.90
20658;DHT22;10488;50.846;4.078;2023-03-14T14:57:27;6.00;99.90
20658;DHT22;10488;50.846;4.078;2023-03-14T15:00:01;6.20;99.90
20658;DHT22;10488;50.846;4.078;2023-03-14T15:02:37;6.40;99.90
20658;DHT22;10488;50.846;4.078;2023-03-14T15:05:23;6.30;99.90
20658;DHT22;10488;50.846;4.078;2023-03-14T15:07:50;6.70;99.90
20658;DHT22;10488;50.846;4.078;2023-03-14T15:10:18;6.70;99.90
20658;DHT22;10488;50.846;4.078;2023-03-14T15:12:44;6.80;99.90
20658;DHT22;10488;50.846;4.078;2023-03-14T15:15:11;7.00;99.90
20658;DHT22;10488;50.846;4.078;2023-03-14T15:17:38;7.10;99.90
20658;DHT22;10488;50.846;4.078;2023-03-14T15:20:06;7.30;99.90
20658;DHT22;10488;50.846;4.078;2023-03-14T15:22:32;7.00;99.90
20658;DHT22;10488;50.846;4.078;2023-03-14T15:24:57;7.10;99.90
20658;DHT22;10488;50.846;4.078;2023-03-14T15:27:25;7.30;99.90
20658;DHT22;10488;50.846;4.078;2023-03-14T15:29:50;7.20;99.90
20658;DHT22;10488;50.846;4.078;2023-03-14T15:32:17;7.00;99.90
20658;DHT22;10488;50.846;4.078;2023-03-14T15:34:43;6.90;99.90
20658;DHT22;10488;50.846;4.078;2023-03-14T15:37:13;7.00;99.90
20658;DHT22;10488;50.846;4.078;2023-03-14T15:39:43;6.90;99.90
20658;DHT22;10488;50.846;4.078;2023-03-14T15:42:09;7.20;99.90
20658;DHT22;10488;50.846;4.078;2023-03-14T15:44:35;7.30;99.90
20658;DHT22;10488;50.846;4.078;2023-03-14T15:47:01;7.20;99.90
20658;DHT22;10488;50.846;4.078;2023-03-14T15:49:27;6.90;99.90
20658;DHT22;10488;50.846;4.078;2023-03-14T15:51:54;6.60;99.90
20658;DHT22;10488;50.846;4.078;2023-03-14T15:54:20;6.40;99.90
20658;DHT22;10488;50.846;4.078;2023-03-14T15:56:45;6.60;99.90
20658;DHT22;10488;50.846;4.078;2023-03-14T15:59:11;6.60;99.90
20658;DHT22;10488;50.846;4.078;2023-03-14T16:01:37;6.40;99.90
20658;DHT22;10488;50.846;4.078;2023-03-14T16:04:02;6.50;99.90
20658;DHT22;10488;50.846;4.078;2023-03-14T16:06:28;6.70;99.90
20658;DHT22;10488;50.846;4.078;2023-03-14T16:08:56;6.60;99.90
20658;DHT22;10488;50.846;4.078;2023-03-14T16:11:23;6.40;99.90
20658;DHT22;10488;50.846;4.078;2023-03-14T16:13:50;6.60;99.90
20658;DHT22;10488;50.846;4.078;2023-03-14T16:16:20;6.60;99.90
20658;DHT22;10488;50.846;4.078;2023-03-14T16:18:48;6.80;99.90
20658;DHT22;10488;50.846;4.078;2023-03-14T16:21:16;7.00;99.90
20658;DHT22;10488;50.846;4.078;2023-03-14T16:23:43;7.30;99.90
20658;DHT22;10488;50.846;4.078;2023-03-14T16:26:13;7.00;99.90
20658;DHT22;10488;50.846;4.078;2023-03-14T16:28:41;7.10;99.90
20658;DHT22;10488;50.846;4.078;2023-03-14T16:31:10;7.20;99.90
20658;DHT22;10488;50.846;4.078;2023-03-14T16:33:38;7.40;99.90
20658;DHT22;10488;50.846;4.078;2023-03-14T16:36:07;7.00;99.90
20658;DHT22;10488;50.846;4.078;2023-03-14T16:38:38;7.20;99.90
20658;DHT22;10488;50.846;4.078;2023-03-14T16:41:10;7.40;99.90
20658;DHT22;10488;50.846;4.078;2023-03-14T16:43:38;7.40;99.90
20658;DHT22;10488;50.846;4.078;2023-03-14T16:46:06;7.40;99.90
20658;DHT22;10488;50.846;4.078;2023-03-14T16:48:32;7.10;99.90
20658;DHT22;10488;50.846;4.078;2023-03-14T16:50:58;7.00;99.90
20658;DHT22;10488;50.846;4.078;2023-03-14T16:53:24;7.00;99.90
20658;DHT22;10488;50.846;4.078;2023-03-14T16:55:53;6.80;99.90